Time;durP1;ratioP1;P1;durP2;ratioP2;P2;SDS_P1;SDS_P2;PMS_P1;PMS_P2;Temp;Humidity;BMP_temperature;BMP_pressure;BME280_temperature;BME280_humidity;BME280_pressure;Samples;Min_cycle;Max_cycle;Signal;HPM_P1;HPM_P2
2023/05/30 00:01:41;;;;;;;17.47;2.83;;;12.40;99.90;;;;;;5054626;28;20165;-61
2023/05/30 00:04:07;;;;;;;18.73;2.97;;;12.40;99.90;;;;;;5054584;28;20242;-60
2023/05/30 00:06:33;;;;;;;16.37;2.97;;;;;;;;;;5054575;28;20185;-62
2023/05/30 00:09:00;;;;;;;14.80;3.00;;;12.30;99.90;;;;;;5054637;28;20173;-62
2023/05/30 00:11:28;;;;;;;15.97;2.53;;;12.20;99.90;;;;;;5054273;28;20307;-62
2023/05/30 00:13:54;;;;;;;12.57;2.40;;;12.20;99.90;;;;;;5054351;28;20184;-63
2023/05/30 00:16:20;;;;;;;14.87;2.47;;;12.30;99.90;;;;;;5054385;28;20248;-63
2023/05/30 00:18:46;;;;;;;16.23;2.87;;;12.20;99.90;;;;;;5054321;28;20169;-63
2023/05/30 00:21:12;;;;;;;17.37;2.60;;;12.10;99.90;;;;;;5054301;28;20177;-62
2023/05/30 00:23:39;;;;;;;8.37;2.50;;;12.00;99.90;;;;;;5054139;28;20172;-63
2023/05/30 00:26:08;;;;;;;13.03;2.87;;;12.10;99.90;;;;;;5054066;28;20765;-63
2023/05/30 00:28:34;;;;;;;18.80;3.07;;;12.10;99.90;;;;;;5054247;28;20173;-63
2023/05/30 00:31:00;;;;;;;14.00;3.47;;;12.00;99.90;;;;;;5054070;28;20204;-63
2023/05/30 00:33:26;;;;;;;13.03;2.47;;;11.90;99.90;;;;;;5036314;28;20260;-63
2023/05/30 00:35:51;;;;;;;19.27;2.67;;;11.80;99.90;;;;;;5034022;28;20202;-63
2023/05/30 00:38:17;;;;;;;19.10;2.70;;;11.80;99.90;;;;;;5034108;28;20600;-62
2023/05/30 00:40:43;;;;;;;17.20;2.60;;;11.80;99.90;;;;;;5033867;28;20184;-62
2023/05/30 00:43:09;;;;;;;16.60;3.03;;;11.80;99.90;;;;;;5033999;28;20205;-62
2023/05/30 00:45:35;;;;;;;21.27;3.10;;;11.70;99.90;;;;;;5033972;28;20241;-62
2023/05/30 00:48:02;;;;;;;19.13;2.63;;;11.80;99.90;;;;;;5033826;28;20228;-62
2023/05/30 00:50:30;;;;;;;12.33;2.23;;;11.70;99.90;;;;;;5033952;28;20182;-62
2023/05/30 00:52:57;;;;;;;13.87;2.87;;;11.60;99.90;;;;;;5032673;28;20178;-62
2023/05/30 00:55:24;;;;;;;14.37;2.90;;;11.70;99.90;;;;;;5033687;28;20179;-62
2023/05/30 00:57:49;;;;;;;10.70;2.23;;;11.70;99.90;;;;;;5033839;28;20173;-62
2023/05/30 01:00:16;;;;;;;12.20;3.00;;;11.70;99.90;;;;;;5033689;28;20542;-62
2023/05/30 01:02:44;;;;;;;16.00;2.40;;;11.60;99.90;;;;;;5033535;28;20185;-62
2023/05/30 01:05:12;;;;;;;23.27;3.00;;;11.60;99.90;;;;;;5033436;28;20301;-62
2023/05/30 01:07:41;;;;;;;21.33;3.17;;;11.60;99.90;;;;;;5033581;28;20176;-62
2023/05/30 01:10:07;;;;;;;19.43;2.63;;;11.50;99.90;;;;;;5033627;28;20178;-62
2023/05/30 01:12:42;;;;;;;14.27;2.63;;;11.50;1.00;;;;;;5015575;28;20205;-62
2023/05/30 01:15:17;;;;;;;20.10;2.77;;;11.40;1.00;;;;;;5033388;28;20228;-62
2023/05/30 01:18:00;;;;;;;20.53;2.80;;;11.50;1.00;;;;;;5033255;28;20170;-62
2023/05/30 01:20:27;;;;;;;19.93;2.60;;;11.40;1.00;;;;;;5033172;28;20268;-63
2023/05/30 01:23:32;;;;;;;15.53;2.73;;;11.40;1.00;;;;;;5033350;28;20197;-65
2023/05/30 01:26:19;;;;;;;16.17;2.53;;;11.40;1.00;;;;;;5033014;28;20209;-64
2023/05/30 01:28:48;;;;;;;18.57;2.63;;;11.40;6.00;;;;;;5033082;28;20261;-64
2023/05/30 01:31:15;;;;;;;15.17;2.43;;;11.30;1.00;;;;;;5015176;28;20225;-64
2023/05/30 01:33:43;;;;;;;21.40;3.43;;;11.30;52.40;;;;;;5052500;28;20198;-64
2023/05/30 01:36:10;;;;;;;11.47;2.57;;;11.40;48.90;;;;;;5052873;28;20240;-63
2023/05/30 01:38:37;;;;;;;22.97;2.97;;;11.40;52.40;;;;;;5052849;28;20581;-63
2023/05/30 01:41:06;;;;;;;22.67;3.20;;;11.20;64.40;;;;;;5052782;28;20180;-64
2023/05/30 01:44:08;;;;;;;20.50;2.70;;;11.30;99.90;;;;;;5052994;28;20185;-64
2023/05/30 01:46:39;;;;;;;15.60;2.90;;;11.30;99.90;;;;;;5050996;28;20196;-64
2023/05/30 01:49:05;;;;;;;19.23;3.50;;;;;;;;;;5035085;28;20188;-64
2023/05/30 01:51:48;;;;;;;15.40;2.53;;;11.30;99.90;;;;;;5052583;28;20650;-64
2023/05/30 01:54:16;;;;;;;18.00;3.07;;;11.20;99.90;;;;;;5038157;28;20165;-64
2023/05/30 01:56:50;;;;;;;14.37;3.00;;;11.20;99.90;;;;;;5032586;28;20166;-64
2023/05/30 01:59:17;;;;;;;13.67;2.77;;;11.30;99.90;;;;;;5032560;28;20170;-64
2023/05/30 02:01:44;;;;;;;17.63;2.83;;;11.30;99.90;;;;;;5014678;28;20182;-65
2023/05/30 02:04:10;;;;;;;16.73;3.00;;;11.20;99.90;;;;;;5032171;28;20166;-64
2023/05/30 02:06:37;;;;;;;17.70;2.73;;;11.10;99.90;;;;;;5048694;28;20177;-64
2023/05/30 02:09:03;;;;;;;15.37;2.67;;;11.10;99.90;;;;;;5052352;28;20208;-64
2023/05/30 02:11:29;;;;;;;21.43;2.80;;;;;;;;;;5047311;28;20170;-64
2023/05/30 02:13:57;;;;;;;13.10;2.97;;;11.10;99.90;;;;;;5032295;28;20669;-64
2023/05/30 02:16:24;;;;;;;19.83;2.40;;;11.10;99.90;;;;;;5031981;28;20200;-64
2023/05/30 02:18:49;;;;;;;20.90;3.03;;;11.00;99.90;;;;;;5031704;28;20649;-63
2023/05/30 02:21:15;;;;;;;21.87;3.17;;;11.10;99.90;;;;;;5031823;28;20181;-63
2023/05/30 02:23:41;;;;;;;15.60;3.33;;;;;;;;;;5031942;28;20608;-62
2023/05/30 02:26:07;;;;;;;18.80;2.83;;;11.00;99.90;;;;;;5031640;28;20214;-62
2023/05/30 02:28:33;;;;;;;14.17;2.90;;;11.00;99.90;;;;;;5031795;28;20178;-62
2023/05/30 02:30:59;;;;;;;13.53;2.80;;;10.90;99.90;;;;;;5031379;28;20206;-62
2023/05/30 02:33:25;;;;;;;21.43;2.80;;;10.80;99.90;;;;;;5031899;28;20630;-62
2023/05/30 02:35:50;;;;;;;16.30;2.73;;;10.80;99.90;;;;;;5034571;28;20169;-63
2023/05/30 02:38:16;;;;;;;16.37;3.13;;;11.10;99.90;;;;;;5051917;28;20235;-63
2023/05/30 02:40:42;;;;;;;21.20;3.10;;;10.80;99.90;;;;;;5046409;28;20638;-62
2023/05/30 02:43:07;;;;;;;17.87;3.50;;;10.90;99.90;;;;;;5031528;28;20178;-63
2023/05/30 02:45:33;;;;;;;20.97;3.23;;;10.80;99.90;;;;;;5031302;28;20640;-63
2023/05/30 02:47:59;;;;;;;11.23;2.50;;;10.90;99.90;;;;;;5031606;28;20641;-63
2023/05/30 02:50:24;;;;;;;16.60;3.27;;;10.90;99.90;;;;;;5031298;28;20181;-63
2023/05/30 02:52:50;;;;;;;21.97;3.13;;;10.80;99.90;;;;;;5031326;28;20882;-62
2023/05/30 02:55:15;;;;;;;18.37;2.60;;;10.80;99.90;;;;;;5031179;28;20188;-64
2023/05/30 02:57:42;;;;;;;12.93;2.93;;;10.80;99.90;;;;;;5031400;28;20174;-63
2023/05/30 03:00:10;;;;;;;17.93;2.90;;;10.80;99.90;;;;;;5013692;28;20226;-64
2023/05/30 03:02:35;;;;;;;18.67;3.10;;;10.80;99.90;;;;;;5031246;28;20243;-63
2023/05/30 03:05:01;;;;;;;16.10;2.97;;;10.70;99.90;;;;;;5031201;28;20197;-63
2023/05/30 03:07:28;;;;;;;18.43;2.87;;;10.70;99.90;;;;;;5031112;28;20180;-62
2023/05/30 03:09:54;;;;;;;17.53;3.27;;;10.70;99.90;;;;;;5028347;28;20312;-62
2023/05/30 03:12:22;;;;;;;15.60;2.93;;;10.70;99.90;;;;;;5030454;28;20207;-62
2023/05/30 03:14:48;;;;;;;21.50;3.40;;;10.60;99.90;;;;;;5031177;28;20240;-63
2023/05/30 03:17:15;;;;;;;18.37;2.83;;;10.70;99.90;;;;;;5025041;28;20182;-62
2023/05/30 03:19:41;;;;;;;16.00;3.77;;;10.60;99.90;;;;;;5024141;28;20220;-63
2023/05/30 03:22:07;;;;;;;17.10;3.17;;;10.70;99.90;;;;;;5031182;28;20223;-63
2023/05/30 03:24:33;;;;;;;18.23;3.37;;;10.70;99.90;;;;;;5011514;28;20214;-63
2023/05/30 03:26:59;;;;;;;15.53;2.83;;;10.70;99.90;;;;;;5011402;28;20248;-64
2023/05/30 03:29:25;;;;;;;24.40;3.43;;;10.80;99.90;;;;;;5024339;28;20176;-62
2023/05/30 03:31:51;;;;;;;24.10;3.30;;;10.60;99.90;;;;;;5030944;28;20245;-62
2023/05/30 03:34:17;;;;;;;21.47;3.87;;;10.60;99.90;;;;;;5031110;28;20698;-62
2023/05/30 03:36:43;;;;;;;12.87;3.10;;;10.60;99.90;;;;;;5030769;28;20185;-62
2023/05/30 03:39:09;;;;;;;20.67;3.07;;;10.60;99.90;;;;;;5031031;28;20174;-62
2023/05/30 03:41:34;;;;;;;15.17;2.80;;;10.60;99.90;;;;;;5030861;28;20193;-63
2023/05/30 03:44:00;;;;;;;19.97;2.93;;;10.60;99.90;;;;;;5030724;28;20549;-63
2023/05/30 03:46:26;;;;;;;16.37;3.67;;;10.60;99.90;;;;;;5031047;28;20642;-64
2023/05/30 03:48:51;;;;;;;15.07;3.37;;;10.60;99.90;;;;;;5030788;28;20249;-64
2023/05/30 03:51:18;;;;;;;15.07;3.30;;;10.50;99.90;;;;;;5030794;28;20182;-64
2023/05/30 03:53:43;;;;;;;21.73;3.60;;;10.50;99.90;;;;;;5030807;28;20182;-64
2023/05/30 03:56:09;;;;;;;16.30;3.40;;;10.50;99.90;;;;;;5030770;28;20630;-64
2023/05/30 03:58:35;;;;;;;14.63;3.20;;;10.50;99.90;;;;;;5030651;28;20170;-64
2023/05/30 04:01:01;;;;;;;14.77;3.00;;;10.60;99.90;;;;;;5030650;28;20656;-65
2023/05/30 04:03:28;;;;;;;25.03;3.30;;;10.60;99.90;;;;;;5030713;28;20186;-65
2023/05/30 04:06:05;;;;;;;25.03;3.30;;;10.50;99.90;;;;;;5012719;28;20673;-64
2023/05/30 04:08:31;;;;;;;18.10;2.90;;;10.50;99.90;;;;;;5030649;28;20251;-64
2023/05/30 04:10:57;;;;;;;18.10;2.93;;;10.50;99.90;;;;;;5013440;28;20673;-64
2023/05/30 04:13:23;;;;;;;17.00;3.10;;;10.60;99.90;;;;;;5050391;28;20180;-65
2023/05/30 04:15:48;;;;;;;19.53;3.60;;;10.50;99.90;;;;;;5050535;28;20173;-65
2023/05/30 04:18:14;;;;;;;14.03;3.33;;;10.50;99.90;;;;;;5032710;28;20546;-63
2023/05/30 04:20:40;;;;;;;19.07;3.27;;;10.50;99.90;;;;;;5028522;28;20227;-63
2023/05/30 04:23:06;;;;;;;12.33;3.23;;;10.40;99.90;;;;;;5020655;28;20601;-64
2023/05/30 04:25:32;;;;;;;16.93;3.40;;;10.40;99.90;;;;;;5029870;28;20244;-65
2023/05/30 04:27:58;;;;;;;18.37;3.03;;;10.40;99.90;;;;;;5032127;28;20178;-65
2023/05/30 04:30:24;;;;;;;13.03;2.77;;;10.50;99.90;;;;;;5033129;28;20190;-64
2023/05/30 04:32:50;;;;;;;15.30;2.73;;;10.50;99.90;;;;;;5021348;28;20293;-64
2023/05/30 04:35:15;;;;;;;20.43;3.30;;;10.40;99.90;;;;;;5016322;28;20188;-65
2023/05/30 04:37:44;;;;;;;25.57;3.33;;;10.40;99.90;;;;;;5023797;28;20179;-66
2023/05/30 04:40:12;;;;;;;19.17;3.47;;;10.50;99.90;;;;;;5014297;28;20175;-66
2023/05/30 04:42:39;;;;;;;14.33;3.27;;;10.40;99.90;;;;;;5014181;28;20254;-66
2023/05/30 04:45:06;;;;;;;14.87;2.90;;;10.30;99.90;;;;;;5014367;28;20597;-62
2023/05/30 04:47:31;;;;;;;18.47;3.40;;;10.30;99.90;;;;;;5014260;28;20253;-62
2023/05/30 04:50:00;;;;;;;24.73;4.03;;;10.40;99.90;;;;;;5024819;28;20609;-62
2023/05/30 04:52:27;;;;;;;22.53;3.67;;;10.50;99.90;;;;;;5033860;28;20174;-62
2023/05/30 04:54:53;;;;;;;10.67;3.07;;;10.50;99.90;;;;;;5015869;28;20178;-62
2023/05/30 04:57:19;;;;;;;21.77;3.33;;;11.00;99.90;;;;;;5033723;28;20204;-62
2023/05/30 04:59:45;;;;;;;31.23;3.37;;;10.50;99.90;;;;;;5015972;28;20213;-63
2023/05/30 05:02:11;;;;;;;23.33;3.70;;;10.50;99.90;;;;;;5033675;28;20594;-62
2023/05/30 05:04:37;;;;;;;16.80;3.47;;;10.60;99.90;;;;;;5033581;28;20217;-62
2023/05/30 05:07:02;;;;;;;18.40;3.40;;;10.70;99.90;;;;;;5033632;28;20255;-60
2023/05/30 05:09:28;;;;;;;12.90;3.30;;;10.70;99.90;;;;;;5033511;28;20642;-60
2023/05/30 05:11:54;;;;;;;16.77;3.27;;;10.80;99.90;;;;;;5033660;28;20174;-63
2023/05/30 05:14:20;;;;;;;13.90;3.33;;;10.80;99.90;;;;;;5015615;28;20180;-63
2023/05/30 05:16:45;;;;;;;28.20;3.50;;;10.90;99.90;;;;;;5033407;28;20207;-63
2023/05/30 05:19:11;;;;;;;12.70;3.27;;;10.90;99.90;;;;;;5033244;28;20649;-62
2023/05/30 05:21:37;;;;;;;11.07;2.87;;;11.00;99.90;;;;;;5033244;28;20704;-63
2023/05/30 05:24:03;;;;;;;20.47;3.83;;;11.00;99.90;;;;;;5033187;28;20198;-63
2023/05/30 05:26:29;;;;;;;12.50;3.50;;;11.10;99.90;;;;;;5033019;28;20209;-63
2023/05/30 05:28:55;;;;;;;13.47;3.00;;;11.10;99.90;;;;;;5033204;28;20223;-62
2023/05/30 05:31:21;;;;;;;21.37;3.53;;;11.00;99.90;;;;;;5032938;28;20217;-61
2023/05/30 05:33:47;;;;;;;15.13;3.00;;;11.00;99.90;;;;;;5032443;28;20177;-62
2023/05/30 05:36:12;;;;;;;14.30;3.43;;;11.10;99.90;;;;;;5020316;28;20185;-63
2023/05/30 05:38:38;;;;;;;21.07;3.57;;;11.20;99.90;;;;;;5017218;28;20178;-63
2023/05/30 05:41:04;;;;;;;13.40;3.23;;;11.30;99.90;;;;;;5017038;28;20657;-63
2023/05/30 05:43:29;;;;;;;16.50;3.67;;;11.30;99.90;;;;;;5032794;28;20172;-63
2023/05/30 05:45:55;;;;;;;18.17;3.47;;;11.40;99.90;;;;;;5023333;28;20769;-63
2023/05/30 05:48:21;;;;;;;20.63;3.43;;;11.50;99.90;;;;;;5030214;28;20173;-63
2023/05/30 05:50:47;;;;;;;24.30;3.67;;;11.50;99.90;;;;;;5028537;28;20206;-63
2023/05/30 05:53:13;;;;;;;20.53;3.50;;;11.60;99.90;;;;;;5013275;28;20646;-63
2023/05/30 05:55:38;;;;;;;18.80;3.63;;;11.70;99.90;;;;;;5012795;28;20202;-65
2023/05/30 05:58:04;;;;;;;23.63;3.57;;;11.80;99.90;;;;;;5012695;28;20173;-63
2023/05/30 06:00:30;;;;;;;11.93;3.50;;;11.70;99.90;;;;;;5012770;28;20177;-64
2023/05/30 06:02:56;;;;;;;18.60;3.67;;;11.80;99.90;;;;;;5016362;28;20209;-63
2023/05/30 06:05:22;;;;;;;15.97;3.40;;;11.90;99.90;;;;;;5032477;28;20253;-64
2023/05/30 06:07:48;;;;;;;23.53;4.00;;;11.90;99.90;;;;;;5032386;28;20189;-64
2023/05/30 06:10:13;;;;;;;19.20;3.90;;;12.00;72.30;;;;;;5014478;28;20235;-63
2023/05/30 06:12:39;;;;;;;15.80;3.67;;;11.90;99.90;;;;;;5032383;28;20181;-63
2023/05/30 06:15:06;;;;;;;15.83;3.00;;;12.00;19.90;;;;;;5032314;28;20171;-63
2023/05/30 06:17:32;;;;;;;17.87;3.30;;;12.10;14.70;;;;;;5032211;28;20733;-63
2023/05/30 06:19:57;;;;;;;15.23;3.13;;;12.20;1.00;;;;;;5032151;28;20260;-63
2023/05/30 06:22:23;;;;;;;15.37;3.60;;;12.20;1.00;;;;;;5031958;28;20216;-63
2023/05/30 06:24:49;;;;;;;19.87;3.37;;;12.30;1.00;;;;;;5031950;28;20216;-63
2023/05/30 06:27:15;;;;;;;15.73;3.83;;;12.20;1.00;;;;;;5014187;28;20189;-63
2023/05/30 06:29:41;;;;;;;15.30;3.30;;;12.40;1.00;;;;;;5031889;28;20174;-64
2023/05/30 06:32:08;;;;;;;15.67;3.20;;;12.60;1.00;;;;;;5031766;28;20222;-64
2023/05/30 06:34:34;;;;;;;17.20;4.03;;;12.70;99.90;;;;;;5031823;28;20182;-64
2023/05/30 06:37:00;;;;;;;16.73;3.97;;;12.80;28.70;;;;;;5031776;28;20912;-64
2023/05/30 06:39:26;;;;;;;13.47;3.57;;;12.90;1.00;;;;;;5031665;28;20178;-64
2023/05/30 06:41:52;;;;;;;10.60;3.17;;;12.80;1.00;;;;;;5031601;28;20182;-64
2023/05/30 06:44:17;;;;;;;20.40;3.40;;;12.90;10.20;;;;;;5029252;28;20272;-63
2023/05/30 06:46:44;;;;;;;13.38;3.33;;;12.60;1.00;;;;;;5031223;28;20272;-63
2023/05/30 06:49:09;;;;;;;21.33;3.90;;;12.80;99.90;;;;;;5022341;28;20700;-63
2023/05/30 06:51:36;;;;;;;13.73;3.07;;;12.80;99.90;;;;;;5030636;28;20169;-60
2023/05/30 06:54:02;;;;;;;13.43;3.55;;;12.80;1.00;;;;;;5013340;28;20174;-60
2023/05/30 06:56:27;;;;;;;16.73;3.17;;;12.80;99.90;;;;;;5030526;28;20545;-61
2023/05/30 06:58:54;;;;;;;19.55;3.72;;;12.80;99.90;;;;;;5029770;28;20542;-60
2023/05/30 07:01:20;;;;;;;11.13;3.03;;;12.50;99.90;;;;;;5031252;28;20188;-60
2023/05/30 07:03:46;;;;;;;15.63;3.13;;;12.60;1.00;;;;;;5013576;28;20700;-63
2023/05/30 07:06:12;;;;;;;14.60;3.50;;;12.60;1.00;;;;;;5030993;28;20304;-64
2023/05/30 07:08:38;;;;;;;14.03;2.67;;;12.60;1.00;;;;;;5019826;28;20202;-62
2023/05/30 07:11:06;;;;;;;15.85;3.50;;;12.80;1.00;;;;;;5025483;28;20187;-65
2023/05/30 07:13:31;;;;;;;13.60;3.27;;;12.90;99.90;;;;;;5031417;28;20630;-71
2023/05/30 07:15:57;;;;;;;13.35;3.30;;;12.90;99.90;;;;;;5031806;28;20185;-70
2023/05/30 07:18:22;;;;;;;13.88;3.53;;;13.20;1.00;;;;;;5015194;28;20178;-69
2023/05/30 07:20:48;;;;;;;12.32;2.97;;;13.30;99.90;;;;;;5012287;28;20546;-69
2023/05/30 07:23:14;;;;;;;12.45;3.05;;;13.40;1.00;;;;;;5012286;28;20244;-71
2023/05/30 07:25:40;;;;;;;13.70;2.83;;;13.40;99.90;;;;;;5011993;28;20247;-70
2023/05/30 07:28:06;;;;;;;11.63;2.95;;;13.60;1.00;;;;;;5022374;28;20177;-71
2023/05/30 07:30:32;;;;;;;14.95;3.10;;;13.70;1.00;;;;;;5031606;28;20649;-69
2023/05/30 07:32:58;;;;;;;13.65;3.08;;;13.90;99.90;;;;;;5021377;28;20752;-67
2023/05/30 07:35:23;;;;;;;15.93;3.13;;;13.80;99.90;;;;;;5012047;28;20171;-69
2023/05/30 07:37:52;;;;;;;11.63;2.83;;;14.10;1.00;;;;;;5019432;28;20166;-68
2023/05/30 07:40:18;;;;;;;16.20;3.20;;;14.10;99.90;;;;;;5029874;28;20180;-66
2023/05/30 07:42:47;;;;;;;12.52;3.03;;;14.30;99.90;;;;;;5031528;28;20223;-68
2023/05/30 07:45:13;;;;;;;13.65;3.30;;;14.10;99.90;;;;;;5031058;28;20245;-69
2023/05/30 07:47:38;;;;;;;12.40;2.70;;;13.90;99.90;;;;;;5029505;28;20197;-70
2023/05/30 07:50:06;;;;;;;9.02;2.70;;;13.90;99.90;;;;;;5031338;28;20642;-71
2023/05/30 07:52:32;;;;;;;12.82;3.13;;;13.80;99.90;;;;;;5031511;28;20170;-70
2023/05/30 07:54:57;;;;;;;11.27;3.00;;;13.70;99.90;;;;;;5029452;28;20242;-70
2023/05/30 07:57:23;;;;;;;15.88;2.97;;;13.60;99.90;;;;;;5021884;28;20209;-70
2023/05/30 07:59:49;;;;;;;10.75;2.63;;;13.90;99.90;;;;;;5023217;28;20174;-70
2023/05/30 08:02:15;;;;;;;13.63;3.20;;;13.90;99.90;;;;;;5031780;28;20178;-69
2023/05/30 08:04:41;;;;;;;14.20;3.22;;;14.10;99.90;;;;;;5015715;28;20234;-62
2023/05/30 08:07:07;;;;;;;14.07;4.10;;;14.30;99.90;;;;;;5014864;28;20206;-62
2023/05/30 08:09:33;;;;;;;19.17;3.25;;;14.20;99.90;;;;;;5014837;28;20163;-62
2023/05/30 08:12:01;;;;;;;11.07;3.50;;;14.50;99.90;;;;;;5014694;28;20174;-61
2023/05/30 08:14:27;;;;;;;25.45;3.60;;;14.60;99.90;;;;;;5015180;28;20265;-63
2023/05/30 08:16:52;;;;;;;32.20;4.03;;;14.90;99.90;;;;;;5033334;28;20499;-64
2023/05/30 08:19:18;;;;;;;14.45;3.22;;;15.50;99.90;;;;;;5033568;28;20183;-63
2023/05/30 08:21:44;;;;;;;19.30;4.00;;;14.90;99.90;;;;;;5034209;28;20657;-64
2023/05/30 08:24:12;;;;;;;16.38;3.60;;;15.00;99.90;;;;;;5032758;28;20181;-63
2023/05/30 08:26:39;;;;;;;16.02;2.97;;;14.80;99.90;;;;;;5033938;28;20196;-62
2023/05/30 08:29:05;;;;;;;15.43;4.05;;;14.60;99.90;;;;;;5031709;28;20189;-59
2023/05/30 08:31:31;;;;;;;10.77;3.20;;;14.80;99.90;;;;;;5026678;28;20347;-62
2023/05/30 08:33:57;;;;;;;7.63;2.42;;;14.80;99.90;;;;;;5033378;28;20182;-61
2023/05/30 08:36:22;;;;;;;20.35;3.13;;;15.00;99.90;;;;;;5033689;28;20182;-62
2023/05/30 08:38:54;;;;;;;9.35;2.63;;;15.20;99.90;;;;;;5015612;28;20519;-62
2023/05/30 08:41:22;;;;;;;22.25;2.95;;;15.60;99.90;;;;;;5016246;28;20536;-64
2023/05/30 08:43:49;;;;;;;9.20;2.90;;;15.70;99.90;;;;;;5030730;28;20174;-64
2023/05/30 08:46:17;;;;;;;13.10;2.88;;;15.90;99.90;;;;;;5028478;28;20202;-63
2023/05/30 08:48:44;;;;;;;8.57;3.10;;;16.20;99.90;;;;;;5015921;28;20177;-63
2023/05/30 08:51:13;;;;;;;11.07;2.83;;;16.40;99.90;;;;;;5033694;28;20161;-64
2023/05/30 08:53:45;;;;;;;10.57;3.33;;;16.60;99.90;;;;;;5032217;28;20212;-63
2023/05/30 08:56:38;;;;;;;14.90;3.17;;;16.10;99.90;;;;;;5033145;28;20315;-64
2023/05/30 08:59:08;;;;;;;12.60;3.28;;;16.80;99.90;;;;;;5032904;28;20218;-63
2023/05/30 09:01:34;;;;;;;17.05;3.45;;;17.30;99.90;;;;;;5032099;28;20185;-64
2023/05/30 09:04:00;;;;;;;12.93;3.45;;;17.80;99.90;;;;;;5033289;28;20669;-63
2023/05/30 09:06:26;;;;;;;12.00;3.17;;;17.90;99.90;;;;;;5032933;28;20240;-64
2023/05/30 09:08:53;;;;;;;10.85;3.00;;;17.70;99.90;;;;;;5028349;28;20328;-65
2023/05/30 09:11:21;;;;;;;10.95;3.10;;;18.20;99.90;;;;;;5033326;28;20178;-64
2023/05/30 09:13:48;;;;;;;8.77;2.95;;;18.20;99.90;;;;;;5032519;28;20228;-64
2023/05/30 09:16:14;;;;;;;8.48;3.00;;;18.60;99.90;;;;;;5033449;28;20240;-64
2023/05/30 09:18:40;;;;;;;9.48;2.67;;;18.90;99.90;;;;;;5032523;28;20232;-63
2023/05/30 09:21:06;;;;;;;10.63;2.85;;;18.90;99.90;;;;;;5028374;28;20174;-63
2023/05/30 09:23:32;;;;;;;17.20;3.05;;;19.00;99.90;;;;;;5033072;28;20587;-62
2023/05/30 09:26:00;;;;;;;12.23;2.80;;;18.70;99.90;;;;;;5032767;28;20304;-62
2023/05/30 09:28:27;;;;;;;13.13;2.85;;;18.60;99.90;;;;;;5033121;28;20657;-61
2023/05/30 09:30:56;;;;;;;17.90;3.30;;;19.10;99.90;;;;;;5031944;28;20178;-63
2023/05/30 09:33:22;;;;;;;14.43;3.03;;;19.40;99.90;;;;;;5031768;28;20213;-63
2023/05/30 09:35:52;;;;;;;13.70;2.85;;;19.60;99.90;;;;;;5032996;28;20177;-63
2023/05/30 09:38:21;;;;;;;12.30;2.78;;;19.20;99.90;;;;;;5032924;28;20170;-62
2023/05/30 09:40:55;;;;;;;12.68;3.00;;;18.90;99.90;;;;;;5032928;28;20178;-62
2023/05/30 09:43:34;;;;;;;9.18;3.05;;;18.90;99.90;;;;;;5032647;28;20192;-63
2023/05/30 09:46:05;;;;;;;15.90;3.40;;;19.40;99.90;;;;;;5030273;28;20225;-62
2023/05/30 09:48:31;;;;;;;11.35;2.95;;;19.40;99.90;;;;;;5012859;28;20192;-62
2023/05/30 09:51:00;;;;;;;13.65;3.00;;;19.40;99.90;;;;;;5027189;28;20185;-62
2023/05/30 09:53:32;;;;;;;13.35;3.53;;;19.80;99.90;;;;;;5031578;28;20273;-62
2023/05/30 09:55:58;;;;;;;9.80;2.67;;;19.20;99.90;;;;;;5013966;28;20178;-63
2023/05/30 09:58:24;;;;;;;12.52;3.08;;;19.50;99.90;;;;;;5029645;28;20182;-61
2023/05/30 10:00:54;;;;;;;12.55;2.95;;;19.90;99.90;;;;;;5031063;28;20666;-63
2023/05/30 10:03:20;;;;;;;17.65;3.80;;;19.90;99.90;;;;;;5032396;28;20173;-64
2023/05/30 10:05:47;;;;;;;9.10;2.88;;;20.00;99.90;;;;;;5027027;28;20220;-64
2023/05/30 10:08:14;;;;;;;16.63;3.72;;;20.60;99.90;;;;;;5032125;28;20260;-63
2023/05/30 10:10:40;;;;;;;13.80;2.95;;;20.50;99.90;;;;;;5032076;28;20293;-63
2023/05/30 10:13:06;;;;;;;15.98;3.33;;;20.50;99.90;;;;;;5031448;28;20174;-63
2023/05/30 10:15:31;;;;;;;9.95;3.08;;;20.30;99.90;;;;;;5032005;28;20181;-62
2023/05/30 10:18:16;;;;;;;12.02;3.85;;;20.20;99.90;;;;;;5029506;28;20182;-63
2023/05/30 10:20:45;;;;;;;11.32;3.47;;;20.90;99.90;;;;;;5032088;28;20177;-62
2023/05/30 10:23:15;;;;;;;17.85;3.63;;;21.10;99.90;;;;;;5027781;28;20178;-62
2023/05/30 10:25:49;;;;;;;11.52;3.72;;;21.50;99.90;;;;;;5031106;28;20224;-62
2023/05/30 10:28:20;;;;;;;9.38;3.28;;;21.60;99.90;;;;;;5029640;28;20204;-62
2023/05/30 10:30:47;;;;;;;11.85;4.07;;;22.00;99.90;;;;;;5031861;28;20162;-62
2023/05/30 10:33:14;;;;;;;11.63;3.95;;;21.40;99.90;;;;;;5031110;28;20189;-62
2023/05/30 10:35:42;;;;;;;14.43;3.85;;;21.60;99.90;;;;;;5028719;28;20233;-62
2023/05/30 10:38:13;;;;;;;9.10;3.53;;;21.50;99.90;;;;;;5031626;28;20263;-61
2023/05/30 10:40:59;;;;;;;11.52;3.70;;;22.00;99.90;;;;;;5031663;28;20194;-62
2023/05/30 10:43:25;;;;;;;13.52;4.03;;;21.90;99.90;;;;;;5031607;28;20280;-62
2023/05/30 10:46:25;;;;;;;15.38;3.97;;;22.10;99.90;;;;;;5030992;28;21136;-63
2023/05/30 10:49:01;;;;;;;9.18;3.78;;;22.60;99.90;;;;;;5023721;28;20676;-63
2023/05/30 10:51:26;;;;;;;9.45;3.50;;;22.50;99.90;;;;;;5031786;28;20260;-63
2023/05/30 10:53:52;;;;;;;9.43;3.88;;;22.80;99.90;;;;;;5023131;28;20254;-63
2023/05/30 10:56:41;;;;;;;12.07;3.95;;;22.70;99.90;;;;;;5008366;28;20205;-62
2023/05/30 10:59:18;;;;;;;13.85;4.47;;;22.70;94.90;;;;;;5030958;28;20192;-62
2023/05/30 11:02:05;;;;;;;11.88;3.83;;;23.10;98.60;;;;;;5030752;28;20170;-62
2023/05/30 11:04:34;;;;;;;11.82;3.70;;;23.10;95.20;;;;;;5031282;28;20178;-62
2023/05/30 11:07:03;;;;;;;13.90;3.72;;;22.30;93.30;;;;;;5030327;28;20178;-62
2023/05/30 11:09:29;;;;;;;13.40;4.13;;;22.30;98.10;;;;;;5023963;28;20175;-62
2023/05/30 11:11:56;;;;;;;10.65;3.75;;;22.50;96.90;;;;;;5011364;28;20198;-63
2023/05/30 11:14:33;;;;;;;20.02;3.38;;;22.60;99.00;;;;;;5011346;28;20154;-62
2023/05/30 11:17:06;;;;;;;16.52;4.00;;;23.10;97.20;;;;;;5015582;28;20173;-62
2023/05/30 11:19:37;;;;;;;13.90;3.83;;;23.10;93.80;;;;;;5031109;28;20178;-60
2023/05/30 11:22:08;;;;;;;11.48;4.07;;;22.90;80.60;;;;;;5031032;28;20205;-63
2023/05/30 11:24:34;;;;;;;11.35;3.42;;;23.30;92.20;;;;;;5031016;28;20256;-63
2023/05/30 11:27:07;;;;;;;9.02;3.78;;;23.50;83.10;;;;;;5029531;28;20602;-62
2023/05/30 11:29:47;;;;;;;15.60;3.70;;;23.40;77.10;;;;;;5020066;28;20190;-62
2023/05/30 11:32:17;;;;;;;15.02;3.70;;;23.90;77.70;;;;;;5014004;28;20268;-62
2023/05/30 11:34:43;;;;;;;11.13;3.35;;;23.50;75.00;;;;;;5011001;28;20170;-62
2023/05/30 11:37:10;;;;;;;6.75;3.00;;;24.50;75.70;;;;;;5010731;28;20324;-63
2023/05/30 11:39:36;;;;;;;15.60;3.10;;;24.60;57.10;;;;;;5011170;28;20198;-62
2023/05/30 11:42:07;;;;;;;9.50;3.25;;;24.00;48.30;;;;;;5011357;28;20235;-61
2023/05/30 11:44:33;;;;;;;12.93;3.45;;;24.30;40.00;;;;;;5009814;28;20175;-64
2023/05/30 11:46:59;;;;;;;10.10;3.35;;;25.00;33.90;;;;;;5011186;28;20162;-62
2023/05/30 11:49:25;;;;;;;15.02;3.85;;;25.50;32.40;;;;;;5025223;28;20186;-63
2023/05/30 11:51:52;;;;;;;14.02;3.70;;;25.70;27.80;;;;;;5029945;28;20177;-62
2023/05/30 11:54:19;;;;;;;17.42;3.72;;;25.90;17.20;;;;;;5030530;28;20204;-63
2023/05/30 11:56:47;;;;;;;12.38;3.85;;;26.20;10.20;;;;;;5030774;28;20251;-62
2023/05/30 11:59:19;;;;;;;13.07;3.38;;;25.60;3.10;;;;;;5030071;28;20202;-62
2023/05/30 12:01:59;;;;;;;12.30;3.45;;;25.50;6.50;;;;;;5030732;28;20173;-63
2023/05/30 12:04:35;;;;;;;12.20;3.17;;;25.20;19.20;;;;;;5022562;28;20266;-63
2023/05/30 12:07:05;;;;;;;12.65;3.42;;;25.60;13.80;;;;;;5030025;28;20209;-63
2023/05/30 12:09:39;;;;;;;10.95;3.10;;;26.50;4.80;;;;;;5030769;28;20177;-64
2023/05/30 12:12:06;;;;;;;13.32;3.53;;;26.70;3.00;;;;;;5030434;28;20173;-63
2023/05/30 12:14:44;;;;;;;16.67;3.20;;;27.30;1.00;;;;;;5030502;28;20192;-63
2023/05/30 12:17:24;;;;;;;10.60;2.95;;;26.30;1.00;;;;;;5028690;28;20169;-62
2023/05/30 12:19:50;;;;;;;12.27;3.17;;;26.20;1.00;;;;;;5012753;28;20260;-62
2023/05/30 12:22:17;;;;;;;8.30;2.95;;;25.60;1.00;;;;;;5030477;28;20174;-63
2023/05/30 12:24:44;;;;;;;11.32;3.20;;;26.00;1.00;;;;;;5009935;28;20662;-62
2023/05/30 12:27:18;;;;;;;13.63;3.25;;;26.60;1.00;;;;;;5029779;28;20186;-63
2023/05/30 12:29:43;;;;;;;8.60;3.03;;;26.60;1.00;;;;;;5030189;28;20270;-62
2023/05/30 12:32:10;;;;;;;9.10;3.08;;;27.00;1.00;;;;;;5030297;28;20454;-62
2023/05/30 12:34:46;;;;;;;9.30;2.85;;;26.60;1.00;;;;;;5030430;28;20173;-63
2023/05/30 12:37:13;;;;;;;10.20;3.60;;;26.80;1.00;;;;;;5025728;28;20439;-62
2023/05/30 12:39:52;;;;;;;13.45;3.15;;;27.10;1.00;;;;;;5021255;28;20174;-62
2023/05/30 12:42:25;;;;;;;7.25;2.95;;;27.60;1.00;;;;;;5018088;28;20261;-63
2023/05/30 12:44:56;;;;;;;10.18;2.70;;;27.70;1.00;;;;;;4999025;28;20234;-63